createdAt,value
2023-03-07T00:02:22.454Z,55.10
2023-03-07T00:07:16.558Z,54.71
2023-03-07T00:09:44.138Z,55.51
2023-03-07T00:12:12.033Z,54.90
2023-03-07T00:14:39.665Z,54.99
2023-03-07T00:17:07.246Z,55.62
2023-03-07T00:19:34.825Z,55.61
2023-03-07T00:22:02.426Z,56.15
2023-03-07T00:24:29.970Z,55.85
2023-03-07T00:26:57.523Z,56.70
2023-03-07T00:29:25.421Z,57.00
2023-03-07T00:31:52.932Z,57.94
2023-03-07T00:34:20.500Z,58.53
2023-03-07T00:36:48.549Z,58.78
2023-03-07T00:39:16.217Z,59.07
2023-03-07T00:41:43.756Z,59.17
2023-03-07T00:44:11.416Z,59.54
2023-03-07T00:46:39.056Z,60.60
2023-03-07T00:49:07.041Z,62.21
2023-03-07T00:51:34.586Z,62.56
2023-03-07T00:54:02.132Z,63.56
2023-03-07T00:56:29.774Z,64.33
2023-03-07T00:58:57.259Z,64.23
2023-03-07T01:01:25.853Z,64.63
2023-03-07T01:03:54.510Z,64.71
2023-03-07T01:06:25.714Z,65.56
2023-03-07T01:08:57.640Z,66.04
2023-03-07T01:11:27.136Z,66.30
2023-03-07T01:13:59.772Z,66.68
2023-03-07T01:16:30.702Z,66.61
2023-03-07T01:19:02.218Z,66.81
2023-03-07T01:21:38.598Z,67.28
2023-03-07T01:24:08.037Z,66.24
2023-03-07T01:26:35.854Z,66.41
2023-03-07T01:29:06.057Z,68.73
2023-03-07T01:31:36.495Z,69.68
2023-03-07T01:34:05.055Z,69.27
2023-03-07T01:36:37.440Z,69.47
2023-03-07T01:39:14.758Z,69.51
2023-03-07T01:41:58.929Z,68.10
2023-03-07T01:44:29.338Z,68.93
2023-03-07T01:47:00.965Z,69.49
2023-03-07T01:49:46.536Z,68.72
2023-03-07T01:52:18.238Z,69.19
2023-03-07T01:54:56.711Z,67.38
2023-03-07T01:57:30.249Z,67.73
2023-03-07T02:00:01.737Z,68.67
2023-03-07T02:02:32.494Z,67.63
2023-03-07T02:05:22.433Z,69.62
2023-03-07T02:07:53.056Z,68.61
2023-03-07T02:10:26.578Z,68.74
2023-03-07T02:12:55.128Z,69.36
2023-03-07T02:15:24.287Z,69.28
2023-03-07T02:17:52.727Z,69.15
2023-03-07T02:20:26.379Z,70.60
2023-03-07T02:22:54.970Z,70.41
2023-03-07T02:25:32.104Z,70.27
2023-03-07T02:28:02.185Z,70.15
2023-03-07T02:30:30.047Z,69.86
2023-03-07T02:32:58.221Z,69.60
2023-03-07T02:35:26.849Z,70.44
2023-03-07T02:38:03.905Z,71.19
2023-03-07T02:40:32.883Z,71.79
2023-03-07T02:43:09.907Z,70.71
2023-03-07T02:45:40.312Z,66.42
2023-03-07T02:48:07.966Z,67.80
2023-03-07T02:50:35.791Z,68.70
2023-03-07T02:53:03.543Z,67.15
2023-03-07T02:55:31.372Z,65.19
2023-03-07T02:58:03.017Z,63.80
2023-03-07T03:00:30.804Z,65.35
2023-03-07T03:02:59.003Z,65.93
2023-03-07T03:05:26.780Z,66.93
2023-03-07T03:07:55.321Z,67.41
2023-03-07T03:10:24.044Z,67.50
2023-03-07T03:12:51.690Z,67.72
2023-03-07T03:15:19.268Z,67.56
2023-03-07T03:17:47.126Z,67.59
2023-03-07T03:20:17.419Z,66.82
2023-03-07T03:22:44.984Z,66.78
2023-03-07T03:25:14.972Z,66.30
2023-03-07T03:27:44.540Z,66.26
2023-03-07T03:30:14.358Z,65.37
2023-03-07T03:32:42.330Z,65.16
2023-03-07T03:35:11.557Z,64.71
2023-03-07T03:37:39.862Z,64.23
2023-03-07T03:40:14.859Z,63.70
2023-03-07T03:42:45.317Z,62.57
2023-03-07T03:45:17.725Z,62.79
2023-03-07T03:47:45.482Z,63.09
2023-03-07T03:50:13.308Z,64.85
2023-03-07T03:52:41.191Z,65.67
2023-03-07T03:55:09.803Z,64.43
2023-03-07T03:57:37.290Z,62.38
2023-03-07T04:00:05.970Z,61.27
2023-03-07T04:02:40.178Z,61.10
2023-03-07T04:05:11.697Z,60.61
2023-03-07T04:07:39.772Z,59.71
2023-03-07T04:10:08.158Z,59.07
2023-03-07T04:12:36.545Z,58.80
2023-03-07T04:15:07.626Z,57.76
2023-03-07T04:17:36.326Z,58.79
2023-03-07T04:20:05.883Z,57.07
2023-03-07T04:22:34.984Z,56.54
2023-03-07T04:25:03.212Z,54.43
2023-03-07T04:27:31.312Z,52.54
2023-03-07T04:29:58.984Z,50.90
2023-03-07T04:32:27.182Z,49.38
2023-03-07T04:34:55.115Z,48.63
2023-03-07T04:37:22.748Z,47.89
2023-03-07T04:39:50.187Z,46.88
2023-03-07T04:42:18.233Z,46.17
2023-03-07T04:44:46.355Z,45.30
2023-03-07T04:47:13.983Z,45.56
2023-03-07T04:49:41.639Z,45.74
2023-03-07T04:52:09.207Z,45.25
2023-03-07T04:54:36.908Z,45.37
2023-03-07T04:57:05.014Z,45.65
2023-03-07T04:59:32.765Z,45.65
2023-03-07T05:02:00.773Z,45.47
2023-03-07T05:04:31.093Z,45.64
2023-03-07T05:06:58.974Z,45.85
2023-03-07T05:09:26.567Z,45.96
2023-03-07T05:11:54.663Z,46.48
2023-03-07T05:14:23.054Z,46.26
2023-03-07T05:16:50.656Z,46.55
2023-03-07T05:19:19.509Z,46.79
2023-03-07T05:21:49.444Z,47.00
2023-03-07T05:24:17.800Z,46.53
2023-03-07T05:26:45.413Z,46.96
2023-03-07T05:29:13.087Z,46.92
2023-03-07T05:31:40.647Z,47.17
2023-03-07T05:34:11.084Z,46.31
2023-03-07T05:36:39.870Z,45.96
2023-03-07T05:39:08.195Z,46.41
2023-03-07T05:41:36.661Z,45.50
2023-03-07T05:44:04.464Z,45.74
2023-03-07T05:46:32.779Z,45.56
2023-03-07T05:49:00.756Z,45.65
2023-03-07T05:51:28.513Z,45.58
2023-03-07T05:53:56.196Z,45.62
2023-03-07T05:56:24.380Z,46.70
2023-03-07T05:58:51.961Z,46.24
2023-03-07T06:01:19.766Z,46.23
2023-03-07T06:03:48.727Z,46.49
2023-03-07T06:06:16.436Z,46.69
2023-03-07T06:08:44.333Z,46.88
2023-03-07T06:11:12.223Z,46.63
2023-03-07T06:13:40.398Z,46.63
2023-03-07T06:16:08.252Z,47.30
2023-03-07T06:18:38.436Z,46.75
2023-03-07T06:21:07.994Z,46.82
2023-03-07T06:23:40.471Z,47.64
2023-03-07T06:26:12.962Z,49.48
2023-03-07T06:28:43.455Z,47.47
2023-03-07T06:31:16.996Z,47.30
2023-03-07T06:33:45.884Z,47.20
2023-03-07T06:36:16.800Z,46.86
2023-03-07T06:38:48.225Z,46.95
2023-03-07T06:41:16.109Z,47.73
2023-03-07T06:43:43.821Z,47.12
2023-03-07T06:46:11.926Z,48.36
2023-03-07T06:48:43.803Z,47.47
2023-03-07T06:51:15.754Z,46.85
2023-03-07T06:53:45.198Z,49.42
2023-03-07T06:56:13.558Z,50.22
2023-03-07T06:58:43.203Z,51.52
2023-03-07T07:01:21.107Z,49.90
2023-03-07T07:03:51.708Z,50.02
2023-03-07T07:06:19.939Z,50.87
2023-03-07T07:08:49.072Z,51.47
2023-03-07T07:11:16.899Z,49.73
2023-03-07T07:13:46.233Z,52.59
2023-03-07T07:16:19.142Z,52.74
2023-03-07T07:18:46.775Z,52.46
2023-03-07T07:21:14.572Z,50.79
2023-03-07T07:23:42.129Z,52.60
2023-03-07T07:26:10.694Z,52.48
2023-03-07T07:28:38.363Z,52.06
2023-03-07T07:31:08.589Z,52.16
2023-03-07T07:33:37.242Z,50.83
2023-03-07T07:36:07.572Z,48.74
2023-03-07T07:38:36.780Z,46.80
2023-03-07T07:41:05.219Z,46.54
2023-03-07T07:43:33.760Z,46.26
2023-03-07T07:46:21.645Z,45.51
2023-03-07T07:48:49.522Z,45.88
2023-03-07T07:51:17.606Z,46.93
2023-03-07T07:53:45.305Z,48.55
2023-03-07T07:56:13.503Z,49.68
2023-03-07T07:58:41.199Z,54.27
2023-03-07T08:01:21.355Z,56.03
2023-03-07T08:03:49.685Z,57.16
2023-03-07T08:06:22.426Z,60.07
2023-03-07T08:08:57.272Z,65.38
2023-03-07T08:11:25.000Z,64.84
2023-03-07T08:13:52.817Z,66.60
2023-03-07T08:16:23.036Z,72.13
2023-03-07T08:18:53.791Z,71.66
2023-03-07T08:21:21.724Z,73.48
2023-03-07T08:23:49.286Z,73.16
2023-03-07T08:26:18.014Z,74.09
2023-03-07T08:28:46.262Z,72.44
2023-03-07T08:31:16.996Z,67.97
2023-03-07T08:33:46.358Z,66.56
2023-03-07T08:36:14.502Z,62.96
2023-03-07T08:38:42.766Z,63.53
2023-03-07T08:41:10.580Z,59.17
2023-03-07T08:43:39.564Z,55.14
2023-03-07T08:46:07.747Z,54.19
2023-03-07T08:48:35.949Z,52.37
2023-03-07T08:51:09.899Z,53.05
2023-03-07T08:53:38.588Z,53.29
2023-03-07T08:56:10.196Z,54.49
2023-03-07T08:58:38.164Z,52.44
2023-03-07T09:01:07.313Z,54.18
2023-03-07T09:03:35.566Z,53.66
2023-03-07T09:06:03.858Z,53.99
2023-03-07T09:08:31.842Z,57.35
2023-03-07T09:11:01.228Z,62.41
2023-03-07T09:13:28.719Z,63.48
2023-03-07T09:15:56.227Z,62.28
2023-03-07T09:18:23.891Z,62.21
2023-03-07T09:20:51.376Z,60.63
2023-03-07T09:23:19.156Z,58.72
2023-03-07T09:25:46.720Z,58.17
2023-03-07T09:28:14.758Z,57.39
2023-03-07T09:30:42.358Z,56.18
2023-03-07T09:33:10.039Z,56.91
2023-03-07T09:35:39.535Z,58.56
2023-03-07T09:38:07.170Z,53.48
2023-03-07T09:40:34.971Z,53.76
2023-03-07T09:43:14.546Z,55.10
2023-03-07T09:46:08.194Z,53.70
2023-03-07T09:49:04.158Z,52.00
2023-03-07T09:51:41.460Z,52.71
2023-03-07T09:54:14.281Z,50.94
2023-03-07T09:56:44.224Z,52.10
2023-03-07T09:59:24.627Z,49.76
2023-03-07T10:02:01.455Z,51.60
2023-03-07T10:04:41.360Z,54.24
2023-03-07T10:07:11.491Z,56.15
2023-03-07T10:09:39.538Z,58.49
2023-03-07T10:12:44.558Z,62.51
2023-03-07T10:15:42.929Z,63.58
2023-03-07T10:18:16.000Z,62.18
2023-03-07T10:21:09.846Z,63.63
2023-03-07T10:24:19.314Z,64.04
2023-03-07T10:27:10.359Z,66.70
2023-03-07T10:30:00.098Z,68.59
2023-03-07T10:32:47.579Z,72.10
2023-03-07T10:35:21.805Z,75.09
2023-03-07T10:38:06.495Z,75.03
2023-03-07T10:40:41.770Z,74.52
2023-03-07T10:43:23.472Z,76.38
2023-03-07T10:45:57.899Z,74.83
2023-03-07T10:48:26.341Z,75.20
2023-03-07T10:51:03.683Z,75.05
2023-03-07T10:53:35.542Z,75.34
2023-03-07T10:56:18.331Z,76.52
2023-03-07T10:59:09.789Z,70.49
2023-03-07T11:01:39.552Z,68.43
2023-03-07T11:04:20.345Z,70.93
2023-03-07T11:07:01.420Z,69.32
2023-03-07T11:09:31.921Z,67.71
2023-03-07T11:12:05.608Z,64.62
2023-03-07T11:14:54.772Z,63.52
2023-03-07T11:17:23.535Z,64.44
2023-03-07T11:19:56.310Z,60.37
2023-03-07T11:22:34.271Z,60.05
2023-03-07T11:25:19.350Z,60.28
2023-03-07T11:27:46.967Z,57.39
2023-03-07T11:30:25.538Z,57.55
2023-03-07T11:32:56.365Z,56.24
2023-03-07T11:35:50.525Z,54.69
2023-03-07T11:38:55.840Z,53.60
2023-03-07T11:41:37.258Z,50.91
2023-03-07T11:44:23.362Z,48.35
2023-03-07T11:47:09.563Z,50.35
2023-03-07T11:49:44.734Z,48.58
2023-03-07T11:52:27.416Z,49.88
2023-03-07T11:55:29.864Z,50.79
2023-03-07T11:58:24.869Z,50.75
2023-03-07T12:01:33.655Z,51.27
2023-03-07T12:04:12.985Z,51.07
2023-03-07T12:06:58.196Z,48.68
2023-03-07T12:09:40.408Z,47.39
2023-03-07T12:12:42.096Z,48.86
2023-03-07T12:15:34.006Z,47.44
2023-03-07T12:18:38.943Z,47.07
2023-03-07T12:21:28.463Z,46.54
2023-03-07T12:24:03.596Z,46.82
2023-03-07T12:26:48.826Z,45.44
2023-03-07T12:29:34.042Z,46.25
2023-03-07T12:32:10.104Z,44.14
2023-03-07T12:34:46.673Z,44.01
2023-03-07T12:37:21.863Z,44.48
2023-03-07T12:40:07.879Z,45.02
2023-03-07T12:42:49.455Z,45.47
2023-03-07T12:45:21.898Z,44.55
2023-03-07T12:47:58.091Z,44.71
2023-03-07T12:50:41.809Z,44.72
2023-03-07T12:53:36.125Z,44.74
2023-03-07T12:56:20.112Z,44.81
2023-03-07T12:59:07.935Z,45.84
2023-03-07T13:01:39.612Z,45.64
2023-03-07T13:04:30.578Z,46.45
2023-03-07T13:07:08.552Z,46.95
2023-03-07T13:09:40.761Z,45.95
2023-03-07T13:12:18.915Z,46.47
2023-03-07T13:14:55.135Z,45.43
2023-03-07T13:17:31.765Z,46.53
2023-03-07T13:19:59.876Z,45.48
2023-03-07T13:22:27.604Z,45.47
2023-03-07T13:25:01.178Z,46.32
2023-03-07T13:27:46.485Z,47.21
2023-03-07T13:30:15.084Z,46.98
2023-03-07T13:32:49.227Z,47.66
2023-03-07T13:35:29.286Z,47.96
2023-03-07T13:38:02.881Z,48.60
2023-03-07T13:40:36.305Z,48.17
2023-03-07T13:43:06.334Z,47.45
2023-03-07T13:45:40.033Z,48.95
2023-03-07T13:48:34.147Z,50.34
2023-03-07T13:51:01.677Z,50.10
2023-03-07T13:53:32.003Z,48.70
2023-03-07T13:55:59.773Z,49.14
2023-03-07T13:58:47.942Z,48.39
2023-03-07T14:01:46.611Z,49.70
2023-03-07T14:04:36.994Z,50.27
2023-03-07T14:07:26.392Z,49.53
2023-03-07T14:10:21.382Z,49.27
2023-03-07T14:13:20.522Z,50.23
2023-03-07T14:16:19.452Z,51.34
2023-03-07T14:19:17.477Z,51.05
2023-03-07T14:21:58.157Z,50.27
2023-03-07T14:24:54.448Z,50.93
2023-03-07T14:27:22.051Z,50.50
2023-03-07T14:29:52.889Z,50.11
2023-03-07T14:32:25.660Z,51.45
2023-03-07T14:34:53.838Z,50.26
2023-03-07T14:37:26.951Z,51.34
2023-03-07T14:39:57.543Z,50.82
2023-03-07T14:42:37.464Z,51.71
2023-03-07T14:45:36.656Z,53.34
2023-03-07T14:48:39.119Z,53.96
2023-03-07T14:51:14.911Z,53.90
2023-03-07T14:53:43.397Z,53.56
2023-03-07T14:56:30.640Z,55.08
2023-03-07T14:59:04.150Z,57.73
2023-03-07T15:01:40.859Z,64.52
2023-03-07T15:04:31.147Z,66.84
2023-03-07T15:07:16.902Z,69.38
2023-03-07T15:09:45.726Z,72.12
2023-03-07T15:12:20.018Z,77.14
2023-03-07T15:14:58.332Z,78.31
2023-03-07T15:17:36.755Z,77.88
2023-03-07T15:20:11.424Z,78.59
2023-03-07T15:22:42.301Z,76.11
2023-03-07T15:25:25.984Z,76.85
2023-03-07T15:28:02.823Z,78.22
2023-03-07T15:30:37.146Z,77.29
2023-03-07T15:33:16.240Z,76.23
2023-03-07T15:35:44.998Z,73.78
2023-03-07T15:38:20.481Z,73.96
2023-03-07T15:40:48.227Z,71.50
2023-03-07T15:43:26.804Z,72.31
2023-03-07T15:46:17.082Z,71.57
2023-03-07T15:48:54.928Z,69.43
2023-03-07T15:51:25.416Z,68.12
2023-03-07T15:54:05.184Z,68.58
2023-03-07T15:56:38.044Z,65.52
2023-03-07T15:59:18.382Z,64.65
2023-03-07T16:01:46.103Z,63.22
2023-03-07T16:04:37.644Z,65.57
2023-03-07T16:07:08.120Z,62.73
2023-03-07T16:09:35.698Z,62.20
2023-03-07T16:12:11.069Z,61.62
2023-03-07T16:14:40.435Z,60.33
2023-03-07T16:17:19.881Z,62.27
2023-03-07T16:19:47.837Z,60.88
2023-03-07T16:22:18.111Z,60.32
2023-03-07T16:24:46.567Z,60.67
2023-03-07T16:27:20.349Z,61.67
2023-03-07T16:29:48.635Z,61.32
2023-03-07T16:32:19.832Z,61.81
2023-03-07T16:34:49.134Z,60.43
2023-03-07T16:37:16.805Z,60.31
2023-03-07T16:39:44.683Z,59.24
2023-03-07T16:42:22.961Z,61.17
2023-03-07T16:44:52.254Z,60.14
2023-03-07T16:47:54.844Z,61.43
2023-03-07T16:50:26.008Z,62.13
2023-03-07T16:52:54.406Z,61.59
2023-03-07T16:55:56.937Z,61.86
2023-03-07T16:58:56.904Z,60.30
2023-03-07T17:01:29.386Z,60.12
2023-03-07T17:03:59.647Z,59.26
2023-03-07T17:06:38.362Z,59.63
2023-03-07T17:09:09.807Z,58.73
2023-03-07T17:11:39.719Z,57.41
2023-03-07T17:14:10.002Z,57.84
2023-03-07T17:16:43.690Z,57.92
2023-03-07T17:19:33.184Z,57.04
2023-03-07T17:22:02.549Z,56.37
2023-03-07T17:24:31.545Z,56.97
2023-03-07T17:27:00.955Z,57.51
2023-03-07T17:29:37.632Z,57.65
2023-03-07T17:32:05.916Z,56.82
2023-03-07T17:34:35.189Z,57.09
2023-03-07T17:37:05.396Z,57.23
2023-03-07T17:39:34.739Z,57.47
2023-03-07T17:42:03.336Z,56.98
2023-03-07T17:44:31.996Z,56.21
2023-03-07T17:46:59.726Z,57.01
2023-03-07T17:49:33.398Z,58.38
2023-03-07T17:52:00.984Z,57.78
2023-03-07T17:54:28.559Z,58.46
2023-03-07T17:56:56.337Z,58.19
2023-03-07T17:59:23.957Z,60.49
2023-03-07T18:01:51.544Z,61.22
2023-03-07T18:04:19.367Z,64.51
2023-03-07T18:06:47.053Z,68.25
2023-03-07T18:09:15.698Z,69.56
2023-03-07T18:11:46.086Z,70.94
2023-03-07T18:14:16.627Z,71.37
2023-03-07T18:16:44.682Z,69.18
2023-03-07T18:19:25.369Z,68.44
2023-03-07T18:21:56.101Z,65.72
2023-03-07T18:24:28.516Z,65.35
2023-03-07T18:26:59.566Z,62.50
2023-03-07T18:29:29.384Z,62.95
2023-03-07T18:31:57.271Z,61.30
2023-03-07T18:34:25.403Z,60.81
2023-03-07T18:36:54.600Z,60.60
2023-03-07T18:39:23.710Z,62.13
2023-03-07T18:41:51.457Z,63.52
2023-03-07T18:44:20.182Z,64.61
2023-03-07T18:46:48.015Z,66.25
2023-03-07T18:49:16.773Z,69.40
2023-03-07T18:51:46.257Z,70.71
2023-03-07T18:54:14.542Z,72.96
2023-03-07T18:56:44.967Z,75.35
2023-03-07T18:59:12.575Z,76.06
2023-03-07T19:01:40.231Z,73.59
2023-03-07T19:04:11.916Z,73.66
2023-03-07T19:06:41.981Z,74.79
2023-03-07T19:09:15.688Z,72.15
2023-03-07T19:11:43.973Z,71.10
2023-03-07T19:14:11.747Z,69.06
2023-03-07T19:16:39.960Z,67.46
2023-03-07T19:19:07.501Z,65.91
2023-03-07T19:21:35.600Z,62.98
2023-03-07T19:24:05.258Z,61.54
2023-03-07T19:26:32.875Z,60.62
2023-03-07T19:29:00.470Z,59.74
2023-03-07T19:31:30.400Z,59.93
2023-03-07T19:33:59.011Z,60.89
2023-03-07T19:36:28.559Z,60.34
2023-03-07T19:38:59.342Z,59.32
2023-03-07T19:41:29.183Z,59.55
2023-03-07T19:43:58.178Z,60.35
2023-03-07T19:46:26.228Z,60.08
2023-03-07T19:48:53.958Z,59.64
2023-03-07T19:51:26.951Z,59.84
2023-03-07T19:53:57.100Z,58.35
2023-03-07T19:56:28.228Z,59.25
2023-03-07T19:58:59.387Z,59.66
2023-03-07T20:01:28.807Z,59.61
2023-03-07T20:03:57.205Z,59.26
2023-03-07T20:06:30.281Z,60.88
2023-03-07T20:08:59.602Z,59.60
2023-03-07T20:11:32.476Z,61.28
2023-03-07T20:14:02.651Z,62.03
2023-03-07T20:16:30.323Z,60.99
2023-03-07T20:19:00.632Z,60.54
2023-03-07T20:21:33.755Z,60.82
2023-03-07T20:24:01.357Z,59.40
2023-03-07T20:26:32.700Z,58.83
2023-03-07T20:29:01.603Z,58.66
2023-03-07T20:31:30.001Z,58.36
2023-03-07T20:33:59.388Z,57.00
2023-03-07T20:36:32.234Z,58.40
2023-03-07T20:39:02.492Z,57.80
2023-03-07T20:41:32.529Z,57.87
2023-03-07T20:44:03.870Z,57.47
2023-03-07T20:46:32.787Z,56.60
2023-03-07T20:49:02.142Z,56.59
2023-03-07T20:51:33.274Z,56.73
2023-03-07T20:54:06.757Z,57.01
2023-03-07T20:56:36.633Z,55.89
2023-03-07T20:59:04.837Z,55.95
2023-03-07T21:01:34.214Z,56.85
2023-03-07T21:04:11.312Z,58.31
2023-03-07T21:06:41.463Z,59.63
2023-03-07T21:09:11.113Z,60.09
2023-03-07T21:11:40.950Z,60.23
2023-03-07T21:14:08.847Z,59.13
2023-03-07T21:16:36.642Z,58.72
2023-03-07T21:19:06.138Z,58.10
2023-03-07T21:21:35.747Z,57.80
2023-03-07T21:24:04.177Z,56.89
2023-03-07T21:26:34.221Z,57.01
2023-03-07T21:29:04.082Z,57.78
2023-03-07T21:31:35.175Z,58.76
2023-03-07T21:34:10.915Z,58.78
2023-03-07T21:36:38.491Z,56.49
2023-03-07T21:39:08.283Z,56.83
2023-03-07T21:41:36.510Z,56.46
2023-03-07T21:44:04.603Z,56.46
2023-03-07T21:46:32.537Z,57.33
2023-03-07T21:49:00.267Z,58.06
2023-03-07T21:51:27.988Z,57.32
2023-03-07T21:53:55.707Z,58.60
2023-03-07T21:56:24.101Z,59.63
2023-03-07T21:58:52.381Z,59.50
2023-03-07T22:01:22.615Z,62.29
2023-03-07T22:03:54.007Z,65.84
2023-03-07T22:06:22.630Z,65.72
2023-03-07T22:08:50.294Z,67.48
2023-03-07T22:11:17.895Z,69.33
2023-03-07T22:13:45.772Z,70.52
2023-03-07T22:16:15.938Z,73.14
2023-03-07T22:18:43.766Z,75.91
2023-03-07T22:21:15.361Z,74.96
2023-03-07T22:23:43.429Z,76.17
2023-03-07T22:26:12.401Z,78.14
2023-03-07T22:28:43.377Z,79.48
2023-03-07T22:31:13.196Z,81.29
2023-03-07T22:33:41.767Z,81.88
2023-03-07T22:36:12.737Z,81.82
2023-03-07T22:38:42.022Z,76.35
2023-03-07T22:41:17.445Z,79.73
2023-03-07T22:43:45.295Z,76.41
2023-03-07T22:46:12.886Z,76.05
2023-03-07T22:48:41.129Z,70.08
2023-03-07T22:51:18.122Z,68.12
2023-03-07T22:53:46.647Z,65.29
2023-03-07T22:56:21.382Z,67.73
2023-03-07T22:58:49.196Z,66.89
2023-03-07T23:01:20.619Z,64.41
2023-03-07T23:03:49.496Z,62.04
2023-03-07T23:06:17.600Z,60.36
2023-03-07T23:08:46.987Z,59.73
2023-03-07T23:11:15.261Z,55.31
2023-03-07T23:13:43.529Z,54.80
2023-03-07T23:16:14.308Z,56.35
2023-03-07T23:18:43.465Z,54.42
2023-03-07T23:21:14.990Z,55.42
2023-03-07T23:23:42.553Z,55.39
2023-03-07T23:26:15.875Z,54.56
2023-03-07T23:28:43.409Z,53.26
2023-03-07T23:31:19.406Z,53.15
2023-03-07T23:33:47.045Z,52.29
2023-03-07T23:36:14.574Z,52.17
2023-03-07T23:38:42.166Z,49.33
2023-03-07T23:41:09.641Z,50.77
2023-03-07T23:43:37.832Z,50.66
2023-03-07T23:46:05.738Z,51.62
2023-03-07T23:48:33.273Z,52.04
2023-03-07T23:51:01.094Z,51.93
2023-03-07T23:53:28.519Z,49.17
2023-03-07T23:55:56.033Z,47.10
2023-03-07T23:58:23.512Z,47.22
